Flight Track Log - Related Links

Times and Time Zones

All times are in EDT time to prevent confusion due to time zone crossing. See the GLA182 flight status page for this flight to view local times or setup timezone preferences in your user account.

Time Position Orientation Groundspeed Altitude Reporting Facility
EDT Latitude Longitude Course Direction KTS MPH feet Rate Location/Type
Wed 11:05:08 AM 44.3169 -100.2783 200° South 185 213 4,200  Level Denver Center
Wed 11:05:25 AM 44.3172 -100.2800 283° West 187 215 4,100 1,519 Descending Minneapolis Center
Wed 11:06:00 AM 44.2437 -100.8665 252° West  Level FlightAware Approximate
Wed 11:06:27 AM 44.3144 -100.3758 268° West 201 231 6,200  Level Minneapolis Center
Wed 11:07:00 AM 44.2214 -100.9629 252° West  Level FlightAware Approximate
Wed 11:07:29 AM 44.3125 -100.4569 268° West 204 235 7,700  Level Minneapolis Center
Wed 11:08:00 AM 44.1986 -101.0591 252° West  Level FlightAware Approximate
Wed 11:08:31 AM 44.3072 -100.5417 265° West 211 243 9,400  Level Minneapolis Center
Wed 11:09:00 AM 44.1757 -101.1552 252° West  Level FlightAware Approximate
Wed 11:09:33 AM 44.2969 -100.6411 262° West 214 246 11,300  Level Minneapolis Center
Wed 11:10:35 AM 44.2822 -100.7233 256° West 217 250 12,800 1,452 Climbing Minneapolis Center
Wed 11:11:37 AM 44.2647 -100.8044 253° West 218 251 14,300 1,403 Climbing Minneapolis Center
Wed 11:12:39 AM 44.2428 -100.8869 250° West 222 255 15,700 1,258 Climbing Minneapolis Center
Wed 11:13:41 AM 44.2194 -100.9708 249° West 227 261 16,900 1,258 Climbing Minneapolis Center
Wed 11:14:43 AM 44.1958 -101.0583 249° West 233 268 18,300 1,258 Climbing Minneapolis Center
Wed 11:15:45 AM 44.1706 -101.1658 252° West 239 275 19,500 1,113 Climbing Minneapolis Center
Wed 11:16:47 AM 44.1494 -101.2594 253° West 245 282 20,600 1,024 Climbing Minneapolis Center
Wed 11:17:48 AM 44.1261 -101.3492 250° West 248 285 21,600 1,000 Climbing Minneapolis Center
Wed 11:18:35 AM 44.0981 -101.4161 240° Southwest 252 290 22,400 881 Climbing Denver Center
Wed 11:19:37 AM 44.0608 -101.5006 238° Southwest 255 293 23,200 726 Climbing Denver Center
Wed 11:20:39 AM 43.9886 -101.5378 200° South 272 313 23,900 387 Climbing Denver Center
Wed 11:21:41 AM 43.9186 -101.5850 206° Southwest 278 320 24,000 48 Climbing Denver Center
Wed 11:22:43 AM 43.8500 -101.6431 211° Southwest 291 335 24,000 48 Level Denver Center
Wed 11:23:45 AM 43.7600 -101.7092 208° Southwest 305 351 24,100  Climbing Denver Center
Wed 11:24:47 AM 43.6864 -101.7661 209° Southwest 304 350 24,000 -48 Descending Denver Center
Wed 11:25:49 AM 43.6131 -101.8242 210° Southwest 304 350 24,000  Level Denver Center
Wed 11:26:51 AM 43.5406 -101.8814 210° Southwest 302 348 24,000 -48 Level Denver Center
Wed 11:27:53 AM 43.4681 -101.9381 210° Southwest 301 346 23,900 -32 Descending Denver Center
Wed 11:29:57 AM 43.3144 -102.0617 210° Southwest 297 342 23,900 32 Level Denver Center
Wed 11:30:59 AM 43.2453 -102.1183 211° Southwest 301 346 24,000 48 Climbing Denver Center
Wed 11:32:01 AM 43.1672 -102.1825 211° Southwest 295 339 24,000 48 Level Denver Center
Wed 11:33:04 AM 43.1003 -102.2383 211° Southwest 295 339 24,100  Climbing Denver Center
Wed 11:34:06 AM 43.0156 -102.2883 203° Southwest 295 339 24,000 -97 Descending Denver Center
Wed 11:35:08 AM 42.9444 -102.3319 204° Southwest 295 339 23,900  Descending Denver Center
Wed 11:36:10 AM 42.8644 -102.3894 208° Southwest 291 335 24,000 48 Climbing Denver Center
Wed 11:37:12 AM 42.7950 -102.4347 206° Southwest 289 333 24,000  Level Denver Center
Wed 11:38:14 AM 42.7111 -102.4792 201° Southwest 289 333 24,000  Level Denver Center
Wed 11:39:16 AM 42.6364 -102.5067 195° South 291 335 24,000  Level Denver Center
Wed 11:40:18 AM 42.5494 -102.5386 195° South 290 334 24,000  Level Denver Center
Wed 11:41:20 AM 42.4750 -102.5644 194° South 288 331 24,000  Level Denver Center
Wed 11:42:22 AM 42.3881 -102.5964 195° South 289 333 24,000  Level Denver Center
Wed 11:43:24 AM 42.3133 -102.6242 195° South 290 334 24,000  Level Denver Center
Wed 11:44:26 AM 42.2383 -102.6517 195° South 292 336 24,000  Level Denver Center
Wed 11:45:28 AM 42.1522 -102.6847 196° South 288 331 24,000  Level Denver Center
Wed 11:46:30 AM 42.0767 -102.7128 195° South 292 336 24,000  Level Denver Center
Wed 11:47:32 AM 41.9908 -102.7456 196° South 288 331 24,000  Level Denver Center
Wed 11:48:34 AM 41.9172 -102.7719 195° South 287 330 24,000  Level Denver Center
Wed 11:49:36 AM 41.8306 -102.8028 195° South 287 330 24,000  Level Denver Center
Wed 11:50:38 AM 41.7544 -102.8272 193° South 292 336 24,000 -48 Level Denver Center
Wed 11:51:40 AM 41.6683 -102.8489 191° South 286 329 23,900 -48 Descending Denver Center
Wed 11:52:42 AM 41.5936 -102.8694 192° South 285 328 23,900 48 Level Denver Center
Wed 11:53:44 AM 41.5064 -102.8900 190° South 285 328 24,000 48 Climbing Denver Center
Wed 11:54:47 AM 41.4336 -102.9103 192° South 282 325 24,000  Level Denver Center
Wed 11:55:49 AM 41.3475 -102.9300 190° South 280 322 24,000  Level Denver Center
Wed 11:56:51 AM 41.2733 -102.9469 190° South 282 325 24,000  Level Denver Center
Wed 11:57:53 AM 41.1956 -102.9644 190° South 282 325 24,000  Level Denver Center
Wed 11:58:55 AM 41.1117 -102.9847 190° South 284 327 24,000  Level Denver Center
Wed 11:59:57 AM 41.0503 -103.0311 210° Southwest 280 322 24,000 -726 Level Denver Center
Wed 12:00:59 PM 40.9953 -103.1158 229° Southwest 273 314 22,500 -1,452 Descending Denver Center
Wed 12:02:01 PM 40.9469 -103.1903 229° Southwest 278 320 21,000 -1,645 Descending Denver Center
Wed 12:03:03 PM 40.8894 -103.2753 228° Southwest 277 319 19,100 -1,694 Descending Denver Center
Wed 12:04:05 PM 40.8403 -103.3506 229° Southwest 280 322 17,500 -1,694 Descending Denver Center
Wed 12:05:07 PM 40.7822 -103.4364 228° Southwest 280 322 15,600 -1,548 Descending Denver Center
Wed 12:06:09 PM 40.7325 -103.5072 227° Southwest 277 319 14,300 -871 Descending Denver Center
Wed 12:07:11 PM 40.6728 -103.5894 226° Southwest 278 320 13,800 -532 Descending Denver Center
Wed 12:08:13 PM 40.6200 -103.6600 225° Southwest 281 323 13,200 -387 Descending Denver Center
Wed 12:09:15 PM 40.5636 -103.7286 223° Southwest 285 328 13,000 -97 Descending Denver Center
Wed 12:10:17 PM 40.4975 -103.8094 223° Southwest 288 331 13,000  Level Denver Center
Wed 12:11:19 PM 40.4403 -103.8800 223° Southwest 285 328 13,000  Level Denver Center
Wed 12:12:22 PM 40.3778 -103.9567 223° Southwest 284 327 13,000  Level Denver Center
Wed 12:13:24 PM 40.3478 -104.0472 247° West 285 328 13,000  Level Denver Center
Wed 12:14:26 PM 40.3558 -104.1567 276° West 284 327 13,000  Level Denver Center
Wed 12:15:28 PM 40.3650 -104.2639 276° West 295 339 13,000  Level Denver Center
Wed 12:16:42 PM 40.3536 -104.3900 263° West 281 323 13,000 -618 Level Denver Center
Wed 12:17:44 PM 40.3472 -104.4967 266° West 276 318 11,600 -1,355 Descending Denver Center
Wed 12:18:46 PM 40.3306 -104.5914 257° West 270 311 10,200 -1,210 Descending Denver Center
Wed 12:19:48 PM 40.2819 -104.6606 227° Southwest 250 288 9,100 -581 Descending Denver Center
Wed 12:20:50 PM 40.2261 -104.6892 201° Southwest 222 255 9,000  Descending Denver Center
Wed 12:21:52 PM 40.1592 -104.6828 176° South 222 255 9,100  Climbing Denver Center
Wed 12:22:54 PM 40.1039 -104.6853 182° South 203 234 9,000 -339 Descending Denver Center
Wed 12:23:56 PM 40.0514 -104.6853 180° South 191 220 8,400 -823 Descending Denver Center
Wed 12:24:58 PM 39.9975 -104.6853 180° South 181 208 7,300 -960 Descending Denver Center
Wed 12:26:01 PM 39.9544 -104.6858 181° South 160 184 6,400 -768 Descending Denver Center
Wed 12:27:03 PM 39.9128 -104.6867 181° South 144 166 5,700 -532 Descending Denver Center
Wed 12:28:05 PM 39.8806 -104.6867 180° South 117 135 5,300 -387 Descending Denver Center
Wed 12:30:00 PM 39.8617 -104.6732 173° South  Level Estimated
Wed 12:37:00 PM 39.8617 -104.6732 173° South  Level Estimated
Wed 12:38:00 PM 39.8617 -104.6732 173° South  Level Estimated

Login

Don't have an account? Register now (free) for customized features, flight alerts, and more!